sensor_id;sensor_type;location;lat;lon;timestamp;P1;durP1;ratioP1;P2;durP2;ratioP2
9208;SDS011;4639;48.862;9.188;2023-07-28T00:00:54;72.82;;;68.32;;
9208;SDS011;4639;48.862;9.188;2023-07-28T00:03:19;60.00;;;56.30;;
9208;SDS011;4639;48.862;9.188;2023-07-28T00:05:45;59.00;;;55.42;;
9208;SDS011;4639;48.862;9.188;2023-07-28T00:08:10;65.68;;;61.40;;
9208;SDS011;4639;48.862;9.188;2023-07-28T00:10:39;56.67;;;53.22;;
9208;SDS011;4639;48.862;9.188;2023-07-28T00:13:06;84.45;;;79.03;;
9208;SDS011;4639;48.862;9.188;2023-07-28T00:15:32;58.40;;;54.80;;
9208;SDS011;4639;48.862;9.188;2023-07-28T00:17:57;55.00;;;51.65;;
9208;SDS011;4639;48.862;9.188;2023-07-28T00:20:24;76.93;;;71.88;;
9208;SDS011;4639;48.862;9.188;2023-07-28T00:22:50;60.53;;;56.70;;
9208;SDS011;4639;48.862;9.188;2023-07-28T00:25:16;61.63;;;57.70;;
9208;SDS011;4639;48.862;9.188;2023-07-28T00:27:41;66.50;;;62.38;;
9208;SDS011;4639;48.862;9.188;2023-07-28T00:30:07;64.30;;;60.33;;
9208;SDS011;4639;48.862;9.188;2023-07-28T00:32:34;63.03;;;59.13;;
9208;SDS011;4639;48.862;9.188;2023-07-28T00:34:59;63.40;;;59.47;;
9208;SDS011;4639;48.862;9.188;2023-07-28T00:37:25;81.07;;;76.05;;
9208;SDS011;4639;48.862;9.188;2023-07-28T00:39:50;70.57;;;66.13;;
9208;SDS011;4639;48.862;9.188;2023-07-28T00:42:16;69.18;;;64.95;;
9208;SDS011;4639;48.862;9.188;2023-07-28T00:44:41;70.05;;;65.35;;
9208;SDS011;4639;48.862;9.188;2023-07-28T00:47:07;80.28;;;75.18;;
9208;SDS011;4639;48.862;9.188;2023-07-28T00:49:32;69.40;;;64.95;;
9208;SDS011;4639;48.862;9.188;2023-07-28T00:51:59;78.30;;;73.28;;
9208;SDS011;4639;48.862;9.188;2023-07-28T00:54:24;71.07;;;66.47;;
9208;SDS011;4639;48.862;9.188;2023-07-28T00:56:50;65.85;;;61.55;;
9208;SDS011;4639;48.862;9.188;2023-07-28T00:59:16;67.30;;;62.97;;
9208;SDS011;4639;48.862;9.188;2023-07-28T01:01:42;76.30;;;71.40;;
9208;SDS011;4639;48.862;9.188;2023-07-28T01:04:08;66.00;;;61.97;;
9208;SDS011;4639;48.862;9.188;2023-07-28T01:09:09;76.18;;;71.18;;
9208;SDS011;4639;48.862;9.188;2023-07-28T01:12:01;67.75;;;63.40;;
9208;SDS011;4639;48.862;9.188;2023-07-28T01:14:32;71.82;;;67.30;;
9208;SDS011;4639;48.862;9.188;2023-07-28T01:16:57;76.15;;;71.47;;
9208;SDS011;4639;48.862;9.188;2023-07-28T01:19:23;76.22;;;71.57;;
9208;SDS011;4639;48.862;9.188;2023-07-28T01:21:52;71.20;;;66.60;;
9208;SDS011;4639;48.862;9.188;2023-07-28T01:24:29;66.75;;;62.70;;
9208;SDS011;4639;48.862;9.188;2023-07-28T01:27:06;67.15;;;63.03;;
9208;SDS011;4639;48.862;9.188;2023-07-28T01:29:32;59.80;;;56.20;;
9208;SDS011;4639;48.862;9.188;2023-07-28T01:31:59;63.85;;;59.63;;
9208;SDS011;4639;48.862;9.188;2023-07-28T01:34:24;70.72;;;66.45;;
9208;SDS011;4639;48.862;9.188;2023-07-28T01:36:50;61.58;;;57.85;;
9208;SDS011;4639;48.862;9.188;2023-07-28T01:39:16;59.00;;;55.53;;
9208;SDS011;4639;48.862;9.188;2023-07-28T01:41:41;58.90;;;55.30;;
9208;SDS011;4639;48.862;9.188;2023-07-28T01:44:09;65.85;;;61.95;;
9208;SDS011;4639;48.862;9.188;2023-07-28T01:46:35;62.17;;;58.17;;
9208;SDS011;4639;48.862;9.188;2023-07-28T01:49:01;56.50;;;52.97;;
9208;SDS011;4639;48.862;9.188;2023-07-28T01:51:26;50.88;;;47.75;;
9208;SDS011;4639;48.862;9.188;2023-07-28T01:53:53;65.03;;;61.03;;
9208;SDS011;4639;48.862;9.188;2023-07-28T01:56:18;61.63;;;57.90;;
9208;SDS011;4639;48.862;9.188;2023-07-28T01:58:44;56.72;;;53.20;;
9208;SDS011;4639;48.862;9.188;2023-07-28T02:01:12;59.17;;;55.58;;
9208;SDS011;4639;48.862;9.188;2023-07-28T02:03:38;58.55;;;55.13;;
9208;SDS011;4639;48.862;9.188;2023-07-28T02:06:03;61.65;;;58.05;;
9208;SDS011;4639;48.862;9.188;2023-07-28T02:08:29;57.60;;;53.95;;
9208;SDS011;4639;48.862;9.188;2023-07-28T02:10:54;59.60;;;56.10;;
9208;SDS011;4639;48.862;9.188;2023-07-28T02:13:20;63.75;;;59.92;;
9208;SDS011;4639;48.862;9.188;2023-07-28T02:15:45;63.65;;;59.63;;
9208;SDS011;4639;48.862;9.188;2023-07-28T02:18:11;65.45;;;61.22;;
9208;SDS011;4639;48.862;9.188;2023-07-28T02:20:36;72.55;;;68.10;;
9208;SDS011;4639;48.862;9.188;2023-07-28T02:23:03;70.00;;;65.72;;
9208;SDS011;4639;48.862;9.188;2023-07-28T02:25:29;63.28;;;59.42;;
9208;SDS011;4639;48.862;9.188;2023-07-28T02:27:55;64.70;;;60.90;;
9208;SDS011;4639;48.862;9.188;2023-07-28T02:30:20;62.38;;;58.75;;
9208;SDS011;4639;48.862;9.188;2023-07-28T02:32:46;83.28;;;78.32;;
9208;SDS011;4639;48.862;9.188;2023-07-28T02:35:11;66.95;;;62.85;;
9208;SDS011;4639;48.862;9.188;2023-07-28T02:37:37;63.13;;;59.40;;
9208;SDS011;4639;48.862;9.188;2023-07-28T02:40:03;67.25;;;63.15;;
9208;SDS011;4639;48.862;9.188;2023-07-28T02:42:29;65.00;;;61.20;;
9208;SDS011;4639;48.862;9.188;2023-07-28T02:44:55;60.78;;;57.17;;
9208;SDS011;4639;48.862;9.188;2023-07-28T02:47:21;58.17;;;54.75;;
9208;SDS011;4639;48.862;9.188;2023-07-28T02:49:46;62.15;;;58.30;;
9208;SDS011;4639;48.862;9.188;2023-07-28T02:52:12;64.60;;;60.72;;
9208;SDS011;4639;48.862;9.188;2023-07-28T02:54:37;68.32;;;64.32;;
9208;SDS011;4639;48.862;9.188;2023-07-28T02:57:03;87.60;;;82.00;;
9208;SDS011;4639;48.862;9.188;2023-07-28T02:59:29;64.10;;;60.38;;
9208;SDS011;4639;48.862;9.188;2023-07-28T03:01:54;66.05;;;62.15;;
9208;SDS011;4639;48.862;9.188;2023-07-28T03:04:22;72.57;;;67.53;;
9208;SDS011;4639;48.862;9.188;2023-07-28T03:06:48;116.47;;;108.57;;
9208;SDS011;4639;48.862;9.188;2023-07-28T03:09:13;64.75;;;60.90;;
9208;SDS011;4639;48.862;9.188;2023-07-28T03:11:41;67.18;;;63.05;;
9208;SDS011;4639;48.862;9.188;2023-07-28T03:14:10;70.07;;;65.78;;
9208;SDS011;4639;48.862;9.188;2023-07-28T03:16:37;76.75;;;72.05;;
9208;SDS011;4639;48.862;9.188;2023-07-28T03:19:04;76.38;;;71.55;;
9208;SDS011;4639;48.862;9.188;2023-07-28T03:21:30;84.93;;;79.72;;
9208;SDS011;4639;48.862;9.188;2023-07-28T03:23:56;84.90;;;79.68;;
9208;SDS011;4639;48.862;9.188;2023-07-28T03:26:21;105.50;;;99.00;;
9208;SDS011;4639;48.862;9.188;2023-07-28T03:28:47;89.78;;;84.38;;
9208;SDS011;4639;48.862;9.188;2023-07-28T03:31:13;91.18;;;85.53;;
9208;SDS011;4639;48.862;9.188;2023-07-28T03:33:38;85.55;;;80.43;;
9208;SDS011;4639;48.862;9.188;2023-07-28T03:36:04;95.13;;;89.50;;
9208;SDS011;4639;48.862;9.188;2023-07-28T03:38:29;94.05;;;88.45;;
9208;SDS011;4639;48.862;9.188;2023-07-28T03:40:55;83.13;;;77.93;;
9208;SDS011;4639;48.862;9.188;2023-07-28T03:43:21;104.57;;;98.07;;
9208;SDS011;4639;48.862;9.188;2023-07-28T03:45:47;94.13;;;88.35;;
9208;SDS011;4639;48.862;9.188;2023-07-28T03:48:12;89.80;;;84.30;;
9208;SDS011;4639;48.862;9.188;2023-07-28T03:50:38;87.50;;;82.22;;
9208;SDS011;4639;48.862;9.188;2023-07-28T03:53:04;84.72;;;79.72;;
9208;SDS011;4639;48.862;9.188;2023-07-28T03:55:29;75.75;;;71.25;;
9208;SDS011;4639;48.862;9.188;2023-07-28T03:57:55;74.57;;;70.00;;
9208;SDS011;4639;48.862;9.188;2023-07-28T04:00:20;80.78;;;75.90;;
9208;SDS011;4639;48.862;9.188;2023-07-28T04:02:46;73.90;;;69.47;;
9208;SDS011;4639;48.862;9.188;2023-07-28T04:05:12;80.80;;;76.07;;
9208;SDS011;4639;48.862;9.188;2023-07-28T04:07:37;68.00;;;64.03;;
9208;SDS011;4639;48.862;9.188;2023-07-28T04:10:03;75.80;;;71.28;;
9208;SDS011;4639;48.862;9.188;2023-07-28T04:12:29;70.22;;;65.97;;
9208;SDS011;4639;48.862;9.188;2023-07-28T04:14:54;62.00;;;58.13;;
9208;SDS011;4639;48.862;9.188;2023-07-28T04:17:20;58.33;;;54.85;;
9208;SDS011;4639;48.862;9.188;2023-07-28T04:19:45;60.17;;;56.55;;
9208;SDS011;4639;48.862;9.188;2023-07-28T04:22:14;61.35;;;57.58;;
9208;SDS011;4639;48.862;9.188;2023-07-28T04:24:43;55.20;;;51.75;;
9208;SDS011;4639;48.862;9.188;2023-07-28T04:27:09;56.03;;;52.35;;
9208;SDS011;4639;48.862;9.188;2023-07-28T04:29:34;56.78;;;53.08;;
9208;SDS011;4639;48.862;9.188;2023-07-28T04:32:00;57.25;;;53.75;;
9208;SDS011;4639;48.862;9.188;2023-07-28T04:34:25;59.28;;;55.72;;
9208;SDS011;4639;48.862;9.188;2023-07-28T04:36:51;59.58;;;55.75;;
9208;SDS011;4639;48.862;9.188;2023-07-28T04:39:16;56.80;;;53.33;;
9208;SDS011;4639;48.862;9.188;2023-07-28T04:41:42;60.75;;;57.25;;
9208;SDS011;4639;48.862;9.188;2023-07-28T04:44:08;64.90;;;60.90;;
9208;SDS011;4639;48.862;9.188;2023-07-28T04:46:33;69.13;;;65.03;;
9208;SDS011;4639;48.862;9.188;2023-07-28T04:48:59;54.78;;;51.50;;
9208;SDS011;4639;48.862;9.188;2023-07-28T04:51:24;62.08;;;58.35;;
9208;SDS011;4639;48.862;9.188;2023-07-28T04:53:50;60.28;;;56.42;;
9208;SDS011;4639;48.862;9.188;2023-07-28T04:56:15;66.60;;;62.65;;
9208;SDS011;4639;48.862;9.188;2023-07-28T04:58:41;65.72;;;61.60;;
9208;SDS011;4639;48.862;9.188;2023-07-28T05:01:06;71.55;;;67.32;;
9208;SDS011;4639;48.862;9.188;2023-07-28T05:03:34;86.13;;;80.82;;
9208;SDS011;4639;48.862;9.188;2023-07-28T05:05:59;73.47;;;69.03;;
9208;SDS011;4639;48.862;9.188;2023-07-28T05:08:25;78.65;;;74.05;;
9208;SDS011;4639;48.862;9.188;2023-07-28T05:10:50;102.70;;;96.65;;
9208;SDS011;4639;48.862;9.188;2023-07-28T05:13:16;89.30;;;84.03;;
9208;SDS011;4639;48.862;9.188;2023-07-28T05:15:42;82.55;;;77.47;;
9208;SDS011;4639;48.862;9.188;2023-07-28T05:18:07;94.38;;;88.68;;
9208;SDS011;4639;48.862;9.188;2023-07-28T05:20:33;94.35;;;88.57;;
9208;SDS011;4639;48.862;9.188;2023-07-28T05:22:58;96.65;;;90.90;;
9208;SDS011;4639;48.862;9.188;2023-07-28T05:25:24;89.00;;;83.70;;
9208;SDS011;4639;48.862;9.188;2023-07-28T05:27:49;103.28;;;97.05;;
9208;SDS011;4639;48.862;9.188;2023-07-28T05:30:15;99.57;;;93.45;;
9208;SDS011;4639;48.862;9.188;2023-07-28T05:32:41;100.93;;;94.55;;
9208;SDS011;4639;48.862;9.188;2023-07-28T05:35:07;87.90;;;82.45;;
9208;SDS011;4639;48.862;9.188;2023-07-28T05:37:32;109.63;;;102.57;;
9208;SDS011;4639;48.862;9.188;2023-07-28T05:39:58;99.75;;;93.57;;
9208;SDS011;4639;48.862;9.188;2023-07-28T05:42:23;104.60;;;97.95;;
9208;SDS011;4639;48.862;9.188;2023-07-28T05:44:50;123.15;;;115.30;;
9208;SDS011;4639;48.862;9.188;2023-07-28T05:47:17;106.18;;;99.53;;
9208;SDS011;4639;48.862;9.188;2023-07-28T05:49:43;108.90;;;102.03;;
9208;SDS011;4639;48.862;9.188;2023-07-28T05:52:09;82.75;;;77.40;;
9208;SDS011;4639;48.862;9.188;2023-07-28T05:54:34;81.55;;;76.20;;
9208;SDS011;4639;48.862;9.188;2023-07-28T05:57:00;86.20;;;80.65;;
9208;SDS011;4639;48.862;9.188;2023-07-28T05:59:25;85.78;;;80.55;;
9208;SDS011;4639;48.862;9.188;2023-07-28T06:01:51;83.18;;;78.05;;
9208;SDS011;4639;48.862;9.188;2023-07-28T06:04:16;87.75;;;82.38;;
9208;SDS011;4639;48.862;9.188;2023-07-28T06:06:43;85.63;;;80.35;;
9208;SDS011;4639;48.862;9.188;2023-07-28T06:09:08;95.07;;;89.38;;
9208;SDS011;4639;48.862;9.188;2023-07-28T06:11:34;107.03;;;100.38;;
9208;SDS011;4639;48.862;9.188;2023-07-28T06:13:59;93.95;;;88.28;;
9208;SDS011;4639;48.862;9.188;2023-07-28T06:16:25;110.40;;;103.13;;
9208;SDS011;4639;48.862;9.188;2023-07-28T06:18:50;105.72;;;99.05;;
9208;SDS011;4639;48.862;9.188;2023-07-28T06:21:16;95.75;;;89.60;;
9208;SDS011;4639;48.862;9.188;2023-07-28T06:23:41;105.63;;;98.78;;
9208;SDS011;4639;48.862;9.188;2023-07-28T06:26:07;103.40;;;96.53;;
9208;SDS011;4639;48.862;9.188;2023-07-28T06:28:32;103.07;;;95.75;;
9208;SDS011;4639;48.862;9.188;2023-07-28T06:30:58;104.63;;;97.63;;
9208;SDS011;4639;48.862;9.188;2023-07-28T06:33:24;109.07;;;101.40;;
9208;SDS011;4639;48.862;9.188;2023-07-28T06:35:50;112.95;;;105.45;;
9208;SDS011;4639;48.862;9.188;2023-07-28T06:38:17;105.70;;;98.57;;
9208;SDS011;4639;48.862;9.188;2023-07-28T06:40:42;107.10;;;99.93;;
9208;SDS011;4639;48.862;9.188;2023-07-28T06:43:08;100.18;;;93.55;;
9208;SDS011;4639;48.862;9.188;2023-07-28T06:45:33;102.43;;;95.72;;
9208;SDS011;4639;48.862;9.188;2023-07-28T06:47:59;121.43;;;113.18;;
9208;SDS011;4639;48.862;9.188;2023-07-28T06:50:25;114.95;;;107.15;;
9208;SDS011;4639;48.862;9.188;2023-07-28T06:52:50;110.03;;;102.57;;
9208;SDS011;4639;48.862;9.188;2023-07-28T06:55:16;118.60;;;110.75;;
9208;SDS011;4639;48.862;9.188;2023-07-28T06:57:43;110.82;;;102.90;;
9208;SDS011;4639;48.862;9.188;2023-07-28T07:00:09;109.47;;;102.47;;
9208;SDS011;4639;48.862;9.188;2023-07-28T07:02:35;110.10;;;103.03;;
9208;SDS011;4639;48.862;9.188;2023-07-28T07:05:01;99.43;;;93.38;;
9208;SDS011;4639;48.862;9.188;2023-07-28T07:07:27;105.25;;;98.68;;
9208;SDS011;4639;48.862;9.188;2023-07-28T07:09:53;107.63;;;100.60;;
9208;SDS011;4639;48.862;9.188;2023-07-28T07:12:18;113.82;;;106.72;;
9208;SDS011;4639;48.862;9.188;2023-07-28T07:14:46;116.82;;;109.28;;
9208;SDS011;4639;48.862;9.188;2023-07-28T07:17:11;108.50;;;101.60;;
9208;SDS011;4639;48.862;9.188;2023-07-28T07:19:37;118.65;;;111.10;;
9208;SDS011;4639;48.862;9.188;2023-07-28T07:22:04;97.43;;;90.93;;
9208;SDS011;4639;48.862;9.188;2023-07-28T07:24:30;105.75;;;98.97;;
9208;SDS011;4639;48.862;9.188;2023-07-28T07:26:56;95.47;;;89.47;;
9208;SDS011;4639;48.862;9.188;2023-07-28T07:29:21;108.80;;;101.55;;
9208;SDS011;4639;48.862;9.188;2023-07-28T07:31:47;120.90;;;112.60;;
9208;SDS011;4639;48.862;9.188;2023-07-28T07:34:13;111.40;;;103.63;;
9208;SDS011;4639;48.862;9.188;2023-07-28T07:36:39;106.22;;;99.10;;
9208;SDS011;4639;48.862;9.188;2023-07-28T07:39:05;109.47;;;101.78;;
9208;SDS011;4639;48.862;9.188;2023-07-28T07:41:30;110.75;;;102.97;;
9208;SDS011;4639;48.862;9.188;2023-07-28T07:43:56;111.30;;;104.28;;
9208;SDS011;4639;48.862;9.188;2023-07-28T07:46:22;107.63;;;100.28;;
9208;SDS011;4639;48.862;9.188;2023-07-28T07:48:48;109.28;;;102.18;;
9208;SDS011;4639;48.862;9.188;2023-07-28T07:51:14;103.50;;;97.30;;
9208;SDS011;4639;48.862;9.188;2023-07-28T07:53:40;113.97;;;107.28;;
9208;SDS011;4639;48.862;9.188;2023-07-28T07:56:06;113.47;;;106.47;;
9208;SDS011;4639;48.862;9.188;2023-07-28T07:58:33;130.00;;;122.10;;
9208;SDS011;4639;48.862;9.188;2023-07-28T08:00:59;132.57;;;124.20;;
9208;SDS011;4639;48.862;9.188;2023-07-28T08:03:25;124.32;;;116.85;;
9208;SDS011;4639;48.862;9.188;2023-07-28T08:05:51;96.80;;;90.80;;
9208;SDS011;4639;48.862;9.188;2023-07-28T08:08:17;115.50;;;108.35;;
9208;SDS011;4639;48.862;9.188;2023-07-28T08:10:44;134.45;;;125.90;;
9208;SDS011;4639;48.862;9.188;2023-07-28T08:13:14;124.00;;;115.97;;
9208;SDS011;4639;48.862;9.188;2023-07-28T08:15:40;122.15;;;114.30;;
9208;SDS011;4639;48.862;9.188;2023-07-28T08:18:08;121.47;;;113.78;;
9208;SDS011;4639;48.862;9.188;2023-07-28T08:20:33;111.28;;;104.47;;
9208;SDS011;4639;48.862;9.188;2023-07-28T08:22:59;126.20;;;118.32;;
9208;SDS011;4639;48.862;9.188;2023-07-28T08:25:24;149.55;;;139.70;;
9208;SDS011;4639;48.862;9.188;2023-07-28T08:27:50;155.68;;;146.02;;
9208;SDS011;4639;48.862;9.188;2023-07-28T08:30:16;162.60;;;152.13;;
9208;SDS011;4639;48.862;9.188;2023-07-28T08:32:42;173.80;;;162.60;;
9208;SDS011;4639;48.862;9.188;2023-07-28T08:35:08;178.38;;;167.07;;
9208;SDS011;4639;48.862;9.188;2023-07-28T08:37:34;168.35;;;157.32;;
9208;SDS011;4639;48.862;9.188;2023-07-28T08:40:00;189.48;;;177.50;;
9208;SDS011;4639;48.862;9.188;2023-07-28T08:42:25;197.88;;;185.43;;
9208;SDS011;4639;48.862;9.188;2023-07-28T08:44:54;218.50;;;205.18;;
9208;SDS011;4639;48.862;9.188;2023-07-28T08:47:19;209.18;;;196.07;;
9208;SDS011;4639;48.862;9.188;2023-07-28T08:49:45;238.82;;;222.93;;
9208;SDS011;4639;48.862;9.188;2023-07-28T08:52:10;211.43;;;198.20;;
9208;SDS011;4639;48.862;9.188;2023-07-28T08:54:41;190.23;;;178.35;;
9208;SDS011;4639;48.862;9.188;2023-07-28T08:57:07;178.57;;;167.15;;
9208;SDS011;4639;48.862;9.188;2023-07-28T08:59:34;159.88;;;149.73;;
9208;SDS011;4639;48.862;9.188;2023-07-28T09:02:01;165.13;;;154.38;;
9208;SDS011;4639;48.862;9.188;2023-07-28T09:04:27;143.85;;;134.88;;
9208;SDS011;4639;48.862;9.188;2023-07-28T09:06:53;132.68;;;124.57;;
9208;SDS011;4639;48.862;9.188;2023-07-28T09:09:20;177.43;;;166.18;;
9208;SDS011;4639;48.862;9.188;2023-07-28T09:11:48;154.15;;;144.43;;
9208;SDS011;4639;48.862;9.188;2023-07-28T09:14:19;174.63;;;163.70;;
9208;SDS011;4639;48.862;9.188;2023-07-28T09:16:46;156.95;;;146.98;;
9208;SDS011;4639;48.862;9.188;2023-07-28T09:19:12;173.93;;;162.57;;
9208;SDS011;4639;48.862;9.188;2023-07-28T09:21:39;189.55;;;177.38;;
9208;SDS011;4639;48.862;9.188;2023-07-28T09:24:07;216.35;;;202.25;;
9208;SDS011;4639;48.862;9.188;2023-07-28T09:29:19;223.50;;;209.30;;
9208;SDS011;4639;48.862;9.188;2023-07-28T09:31:46;182.93;;;171.60;;
9208;SDS011;4639;48.862;9.188;2023-07-28T09:34:13;162.40;;;152.02;;
9208;SDS011;4639;48.862;9.188;2023-07-28T09:36:58;181.50;;;170.23;;
9208;SDS011;4639;48.862;9.188;2023-07-28T09:39:25;145.60;;;136.50;;
9208;SDS011;4639;48.862;9.188;2023-07-28T09:41:51;132.82;;;125.00;;
9208;SDS011;4639;48.862;9.188;2023-07-28T09:44:18;63.72;;;60.05;;
9208;SDS011;4639;48.862;9.188;2023-07-28T09:46:54;67.57;;;63.33;;
9208;SDS011;4639;48.862;9.188;2023-07-28T09:49:36;67.32;;;63.42;;
9208;SDS011;4639;48.862;9.188;2023-07-28T09:52:04;46.30;;;43.60;;
9208;SDS011;4639;48.862;9.188;2023-07-28T09:54:33;42.10;;;39.70;;
9208;SDS011;4639;48.862;9.188;2023-07-28T09:57:03;44.72;;;42.17;;
9208;SDS011;4639;48.862;9.188;2023-07-28T09:59:38;179.45;;;165.65;;
9208;SDS011;4639;48.862;9.188;2023-07-28T10:02:05;230.55;;;213.65;;
9208;SDS011;4639;48.862;9.188;2023-07-28T10:04:31;163.98;;;153.82;;
9208;SDS011;4639;48.862;9.188;2023-07-28T10:06:57;131.05;;;122.93;;
9208;SDS011;4639;48.862;9.188;2023-07-28T10:09:24;151.95;;;142.55;;
9208;SDS011;4639;48.862;9.188;2023-07-28T10:11:51;130.98;;;122.95;;
9208;SDS011;4639;48.862;9.188;2023-07-28T10:14:28;109.57;;;102.60;;
9208;SDS011;4639;48.862;9.188;2023-07-28T10:16:57;95.80;;;89.72;;
9208;SDS011;4639;48.862;9.188;2023-07-28T10:19:26;143.10;;;134.43;;
9208;SDS011;4639;48.862;9.188;2023-07-28T10:21:58;112.57;;;105.50;;
9208;SDS011;4639;48.862;9.188;2023-07-28T10:27:36;99.95;;;93.57;;
9208;SDS011;4639;48.862;9.188;2023-07-28T10:30:04;81.93;;;76.70;;
9208;SDS011;4639;48.862;9.188;2023-07-28T10:32:38;96.57;;;90.57;;
9208;SDS011;4639;48.862;9.188;2023-07-28T10:35:06;132.25;;;123.95;;
9208;SDS011;4639;48.862;9.188;2023-07-28T10:37:33;80.60;;;75.70;;
9208;SDS011;4639;48.862;9.188;2023-07-28T10:42:59;60.47;;;56.80;;
9208;SDS011;4639;48.862;9.188;2023-07-28T10:45:25;83.65;;;78.43;;
9208;SDS011;4639;48.862;9.188;2023-07-28T10:47:52;70.53;;;66.30;;
9208;SDS011;4639;48.862;9.188;2023-07-28T10:50:25;97.93;;;91.93;;
9208;SDS011;4639;48.862;9.188;2023-07-28T10:52:52;78.05;;;73.20;;
9208;SDS011;4639;48.862;9.188;2023-07-28T10:55:21;83.95;;;78.78;;
9208;SDS011;4639;48.862;9.188;2023-07-28T10:57:49;101.03;;;94.65;;
9208;SDS011;4639;48.862;9.188;2023-07-28T11:00:17;87.57;;;82.10;;
9208;SDS011;4639;48.862;9.188;2023-07-28T11:02:53;65.28;;;61.08;;
9208;SDS011;4639;48.862;9.188;2023-07-28T11:05:23;69.57;;;65.18;;
9208;SDS011;4639;48.862;9.188;2023-07-28T11:08:00;78.63;;;73.68;;
9208;SDS011;4639;48.862;9.188;2023-07-28T11:10:28;61.33;;;57.65;;
9208;SDS011;4639;48.862;9.188;2023-07-28T11:12:56;53.50;;;50.22;;
9208;SDS011;4639;48.862;9.188;2023-07-28T11:15:26;56.60;;;53.20;;
9208;SDS011;4639;48.862;9.188;2023-07-28T11:17:52;64.22;;;60.30;;
9208;SDS011;4639;48.862;9.188;2023-07-28T11:20:20;57.28;;;53.65;;
9208;SDS011;4639;48.862;9.188;2023-07-28T11:25:20;48.22;;;45.28;;
9208;SDS011;4639;48.862;9.188;2023-07-28T11:27:46;30.13;;;28.25;;
9208;SDS011;4639;48.862;9.188;2023-07-28T11:30:12;33.45;;;31.35;;
9208;SDS011;4639;48.862;9.188;2023-07-28T11:32:41;40.60;;;38.15;;
9208;SDS011;4639;48.862;9.188;2023-07-28T11:35:09;35.47;;;33.28;;
9208;SDS011;4639;48.862;9.188;2023-07-28T11:37:37;69.95;;;65.95;;
9208;SDS011;4639;48.862;9.188;2023-07-28T11:40:04;104.32;;;98.20;;
9208;SDS011;4639;48.862;9.188;2023-07-28T11:42:35;112.00;;;105.47;;
9208;SDS011;4639;48.862;9.188;2023-07-28T11:45:03;132.63;;;125.20;;
9208;SDS011;4639;48.862;9.188;2023-07-28T11:47:29;157.88;;;149.25;;
9208;SDS011;4639;48.862;9.188;2023-07-28T11:49:55;186.43;;;175.27;;
9208;SDS011;4639;48.862;9.188;2023-07-28T11:52:23;134.00;;;126.75;;
9208;SDS011;4639;48.862;9.188;2023-07-28T11:54:53;121.38;;;114.80;;
9208;SDS011;4639;48.862;9.188;2023-07-28T11:57:19;136.02;;;128.60;;
9208;SDS011;4639;48.862;9.188;2023-07-28T11:59:45;136.27;;;128.40;;
9208;SDS011;4639;48.862;9.188;2023-07-28T12:02:11;143.50;;;135.52;;
9208;SDS011;4639;48.862;9.188;2023-07-28T12:04:38;119.50;;;113.13;;
9208;SDS011;4639;48.862;9.188;2023-07-28T12:07:08;118.20;;;111.70;;
9208;SDS011;4639;48.862;9.188;2023-07-28T12:12:16;159.25;;;150.20;;
9208;SDS011;4639;48.862;9.188;2023-07-28T12:14:44;200.93;;;188.98;;
9208;SDS011;4639;48.862;9.188;2023-07-28T12:19:42;66.47;;;62.58;;
9208;SDS011;4639;48.862;9.188;2023-07-28T12:22:19;56.05;;;52.83;;
9208;SDS011;4639;48.862;9.188;2023-07-28T12:24:45;56.25;;;52.95;;
9208;SDS011;4639;48.862;9.188;2023-07-28T12:27:10;89.90;;;84.10;;
9208;SDS011;4639;48.862;9.188;2023-07-28T12:29:38;67.18;;;63.15;;
9208;SDS011;4639;48.862;9.188;2023-07-28T12:32:04;71.10;;;66.80;;
9208;SDS011;4639;48.862;9.188;2023-07-28T12:34:29;52.50;;;49.55;;
9208;SDS011;4639;48.862;9.188;2023-07-28T12:36:55;68.70;;;64.75;;
9208;SDS011;4639;48.862;9.188;2023-07-28T12:39:21;70.95;;;66.82;;
9208;SDS011;4639;48.862;9.188;2023-07-28T12:41:47;70.47;;;66.43;;
9208;SDS011;4639;48.862;9.188;2023-07-28T12:44:12;95.13;;;89.35;;
9208;SDS011;4639;48.862;9.188;2023-07-28T12:46:38;74.03;;;69.68;;
9208;SDS011;4639;48.862;9.188;2023-07-28T12:49:04;55.47;;;51.92;;
9208;SDS011;4639;48.862;9.188;2023-07-28T12:51:32;72.40;;;68.00;;
9208;SDS011;4639;48.862;9.188;2023-07-28T12:53:57;72.65;;;68.45;;
9208;SDS011;4639;48.862;9.188;2023-07-28T12:56:23;52.55;;;49.40;;
9208;SDS011;4639;48.862;9.188;2023-07-28T12:58:48;49.17;;;46.20;;
9208;SDS011;4639;48.862;9.188;2023-07-28T13:01:14;43.58;;;40.83;;
9208;SDS011;4639;48.862;9.188;2023-07-28T13:03:39;47.95;;;45.17;;
9208;SDS011;4639;48.862;9.188;2023-07-28T13:06:05;43.35;;;40.85;;
9208;SDS011;4639;48.862;9.188;2023-07-28T13:08:31;65.88;;;62.13;;
9208;SDS011;4639;48.862;9.188;2023-07-28T13:10:56;39.47;;;37.22;;
9208;SDS011;4639;48.862;9.188;2023-07-28T13:13:22;68.78;;;64.82;;
9208;SDS011;4639;48.862;9.188;2023-07-28T13:15:47;79.20;;;74.57;;
9208;SDS011;4639;48.862;9.188;2023-07-28T13:18:13;72.53;;;68.20;;
9208;SDS011;4639;48.862;9.188;2023-07-28T13:20:38;94.78;;;89.00;;
9208;SDS011;4639;48.862;9.188;2023-07-28T13:23:04;118.13;;;110.40;;
9208;SDS011;4639;48.862;9.188;2023-07-28T13:25:29;165.25;;;154.60;;
9208;SDS011;4639;48.862;9.188;2023-07-28T13:27:55;236.43;;;220.75;;
9208;SDS011;4639;48.862;9.188;2023-07-28T13:30:21;152.63;;;142.57;;
9208;SDS011;4639;48.862;9.188;2023-07-28T13:32:46;174.60;;;163.15;;
9208;SDS011;4639;48.862;9.188;2023-07-28T13:35:12;202.27;;;189.15;;
9208;SDS011;4639;48.862;9.188;2023-07-28T13:37:39;256.42;;;239.50;;
9208;SDS011;4639;48.862;9.188;2023-07-28T13:40:05;275.52;;;257.92;;
9208;SDS011;4639;48.862;9.188;2023-07-28T13:42:31;267.48;;;250.23;;
9208;SDS011;4639;48.862;9.188;2023-07-28T13:44:56;299.05;;;279.92;;
9208;SDS011;4639;48.862;9.188;2023-07-28T13:47:22;285.55;;;267.55;;
9208;SDS011;4639;48.862;9.188;2023-07-28T13:49:48;272.23;;;254.73;;
9208;SDS011;4639;48.862;9.188;2023-07-28T13:52:13;304.40;;;285.15;;
9208;SDS011;4639;48.862;9.188;2023-07-28T13:54:39;300.15;;;280.20;;
9208;SDS011;4639;48.862;9.188;2023-07-28T13:57:04;290.70;;;271.27;;
9208;SDS011;4639;48.862;9.188;2023-07-28T13:59:30;234.48;;;218.38;;
9208;SDS011;4639;48.862;9.188;2023-07-28T14:01:56;317.88;;;294.55;;
9208;SDS011;4639;48.862;9.188;2023-07-28T14:04:23;219.15;;;203.90;;
9208;SDS011;4639;48.862;9.188;2023-07-28T14:06:48;175.55;;;163.38;;
9208;SDS011;4639;48.862;9.188;2023-07-28T14:09:14;203.40;;;190.07;;
9208;SDS011;4639;48.862;9.188;2023-07-28T14:11:40;184.60;;;172.63;;
9208;SDS011;4639;48.862;9.188;2023-07-28T14:14:05;179.38;;;167.57;;
9208;SDS011;4639;48.862;9.188;2023-07-28T14:16:31;152.70;;;142.80;;
9208;SDS011;4639;48.862;9.188;2023-07-28T14:18:56;177.40;;;166.07;;
9208;SDS011;4639;48.862;9.188;2023-07-28T14:21:22;175.85;;;164.13;;
9208;SDS011;4639;48.862;9.188;2023-07-28T14:23:48;174.80;;;163.18;;
9208;SDS011;4639;48.862;9.188;2023-07-28T14:26:13;232.52;;;218.00;;
9208;SDS011;4639;48.862;9.188;2023-07-28T14:28:39;240.98;;;226.15;;
9208;SDS011;4639;48.862;9.188;2023-07-28T14:31:04;249.30;;;233.82;;
9208;SDS011;4639;48.862;9.188;2023-07-28T14:33:30;258.95;;;242.63;;
9208;SDS011;4639;48.862;9.188;2023-07-28T14:35:55;248.15;;;231.90;;
9208;SDS011;4639;48.862;9.188;2023-07-28T14:38:21;254.70;;;238.27;;
9208;SDS011;4639;48.862;9.188;2023-07-28T14:40:47;253.75;;;237.30;;
9208;SDS011;4639;48.862;9.188;2023-07-28T14:43:14;242.07;;;226.50;;
9208;SDS011;4639;48.862;9.188;2023-07-28T14:45:41;217.93;;;204.60;;
9208;SDS011;4639;48.862;9.188;2023-07-28T14:48:07;246.02;;;230.55;;
9208;SDS011;4639;48.862;9.188;2023-07-28T14:50:32;258.73;;;242.20;;
9208;SDS011;4639;48.862;9.188;2023-07-28T14:52:58;244.60;;;229.45;;